createdAt,value
2018-11-04T00:02:27.837Z,3.77
2018-11-04T00:05:02.651Z,4.14
2018-11-04T00:07:37.984Z,4.22
2018-11-04T00:10:13.096Z,4.25
2018-11-04T00:12:47.976Z,4.42
2018-11-04T00:15:23.198Z,4.25
2018-11-04T00:17:58.028Z,4.08
2018-11-04T00:20:33.012Z,4.19
2018-11-04T00:23:07.932Z,4.43
2018-11-04T00:25:42.955Z,4.48
2018-11-04T00:28:17.739Z,4.01
2018-11-04T00:30:52.635Z,3.95
2018-11-04T00:33:27.670Z,3.68
2018-11-04T00:36:03.599Z,3.30
2018-11-04T00:38:38.577Z,3.49
2018-11-04T00:41:13.452Z,3.82
2018-11-04T00:43:48.575Z,3.91
2018-11-04T00:46:23.570Z,3.04
2018-11-04T00:48:58.528Z,2.19
2018-11-04T00:51:33.548Z,2.03
2018-11-04T00:54:08.646Z,1.96
2018-11-04T00:56:43.526Z,2.60
2018-11-04T00:59:18.526Z,2.90
2018-11-04T01:01:53.679Z,3.09
2018-11-04T01:04:28.594Z,2.99
2018-11-04T01:07:04.159Z,3.21
2018-11-04T01:09:39.411Z,2.67
2018-11-04T01:12:14.425Z,2.42
2018-11-04T01:14:49.240Z,2.34
2018-11-04T01:17:24.216Z,2.78
2018-11-04T01:19:59.337Z,2.88
2018-11-04T01:22:34.379Z,3.00
2018-11-04T01:25:09.439Z,2.69
2018-11-04T01:27:44.314Z,2.71
2018-11-04T01:30:19.720Z,2.69
2018-11-04T01:32:54.748Z,2.53
2018-11-04T01:35:29.839Z,2.16
2018-11-04T01:38:05.661Z,1.97
2018-11-04T01:40:40.677Z,1.85
2018-11-04T01:43:15.884Z,1.85
2018-11-04T01:45:50.885Z,1.76
2018-11-04T01:48:26.483Z,1.65
2018-11-04T01:51:01.347Z,1.80
2018-11-04T01:53:36.403Z,1.84
2018-11-04T01:56:11.212Z,2.36
2018-11-04T01:58:46.448Z,2.26
2018-11-04T02:01:21.417Z,2.56
2018-11-04T02:03:56.320Z,2.39
2018-11-04T02:06:31.757Z,2.48
2018-11-04T02:09:07.901Z,2.67
2018-11-04T02:11:42.677Z,1.88
2018-11-04T02:14:17.737Z,1.29
2018-11-04T02:16:52.780Z,1.33
2018-11-04T02:19:27.899Z,1.40
2018-11-04T02:22:02.644Z,1.47
2018-11-04T02:24:38.296Z,1.46
2018-11-04T02:27:13.135Z,1.69
2018-11-04T02:29:48.130Z,1.57
2018-11-04T02:32:23.058Z,1.69
2018-11-04T02:34:58.187Z,2.04
2018-11-04T02:37:33.292Z,1.90
2018-11-04T02:40:08.321Z,1.53
2018-11-04T02:42:43.294Z,1.19
2018-11-04T02:45:23.632Z,1.38
2018-11-04T02:47:58.416Z,1.66
2018-11-04T02:50:33.404Z,1.91
2018-11-04T02:53:08.580Z,1.93
2018-11-04T02:55:43.464Z,1.97
2018-11-04T02:58:18.527Z,1.58
2018-11-04T03:00:53.564Z,1.40
2018-11-04T03:03:28.471Z,0.83
2018-11-04T03:06:03.487Z,0.17
2018-11-04T03:08:38.437Z,-0.07
2018-11-04T03:11:13.430Z,0.25
2018-11-04T03:13:48.256Z,0.49
2018-11-04T03:16:23.185Z,0.54
2018-11-04T03:18:58.104Z,0.77
2018-11-04T03:21:33.024Z,0.89
2018-11-04T03:24:07.968Z,1.09
2018-11-04T03:26:42.926Z,1.35
2018-11-04T03:29:17.857Z,1.52
2018-11-04T03:31:53.516Z,1.68
2018-11-04T03:34:28.404Z,1.72
2018-11-04T03:37:03.372Z,1.64
2018-11-04T03:39:38.403Z,1.69
2018-11-04T03:42:13.500Z,1.23
2018-11-04T03:44:48.328Z,0.50
2018-11-04T03:47:23.422Z,-0.26
2018-11-04T03:49:58.198Z,-0.03
2018-11-04T03:52:33.260Z,-0.29
2018-11-04T03:55:08.460Z,-0.56
2018-11-04T03:57:43.441Z,-0.51
2018-11-04T04:00:18.447Z,-0.79
2018-11-04T04:02:53.459Z,-0.33
2018-11-04T04:05:28.301Z,0.10
2018-11-04T04:08:03.150Z,0.35
2018-11-04T04:10:38.176Z,0.70
2018-11-04T04:13:13.185Z,0.68
2018-11-04T04:15:48.208Z,0.74
2018-11-04T04:18:23.159Z,0.40
2018-11-04T04:21:06.921Z,0.02
2018-11-04T04:23:42.509Z,-0.70
2018-11-04T04:26:17.397Z,-0.73
2018-11-04T04:28:53.404Z,-0.78
2018-11-04T04:31:29.189Z,-0.97
2018-11-04T04:34:04.161Z,-1.24
2018-11-04T04:36:39.084Z,-1.31
2018-11-04T04:39:14.389Z,-1.44
2018-11-04T04:41:49.329Z,-1.48
2018-11-04T04:44:24.198Z,-1.29
2018-11-04T04:46:59.232Z,-1.22
2018-11-04T04:49:35.170Z,-1.04
2018-11-04T04:52:09.951Z,-0.94
2018-11-04T04:54:44.792Z,-0.94
2018-11-04T04:57:20.188Z,-0.79
2018-11-04T04:59:54.988Z,-0.89
2018-11-04T05:02:29.954Z,-0.54
2018-11-04T05:05:05.818Z,-0.57
2018-11-04T05:07:40.770Z,-0.46
2018-11-04T05:10:15.592Z,-0.63
2018-11-04T05:12:50.552Z,0.04
2018-11-04T05:15:25.500Z,-0.06
2018-11-04T05:18:00.849Z,-0.95
2018-11-04T05:20:36.448Z,-1.19
2018-11-04T05:23:11.252Z,-0.94
2018-11-04T05:25:46.771Z,-0.98
2018-11-04T05:28:21.630Z,-1.01
2018-11-04T05:30:56.650Z,-0.93
2018-11-04T05:33:31.665Z,-0.51
2018-11-04T05:36:06.738Z,-0.25
2018-11-04T05:38:41.670Z,-0.03
2018-11-04T05:41:16.672Z,0.13
2018-11-04T05:43:51.603Z,0.63
2018-11-04T05:46:26.615Z,0.82
2018-11-04T05:49:01.576Z,0.94
2018-11-04T05:51:36.931Z,1.25
2018-11-04T05:54:11.821Z,1.51
2018-11-04T05:56:46.840Z,1.97
2018-11-04T05:59:21.669Z,1.92
2018-11-04T06:01:56.627Z,2.33
2018-11-04T06:04:31.596Z,2.70
2018-11-04T06:07:06.633Z,2.82
2018-11-04T06:09:41.568Z,3.25
2018-11-04T06:12:16.588Z,3.42
2018-11-04T06:14:51.432Z,3.66
2018-11-04T06:17:26.496Z,3.62
2018-11-04T06:20:02.369Z,3.63
2018-11-04T06:22:37.163Z,3.85
2018-11-04T06:25:12.112Z,4.24
2018-11-04T06:27:46.953Z,4.36
2018-11-04T06:30:22.004Z,4.70
2018-11-04T06:32:56.990Z,4.80
2018-11-04T06:35:31.908Z,5.05
2018-11-04T06:38:07.032Z,5.25
2018-11-04T06:40:41.845Z,5.54
2018-11-04T06:43:16.638Z,5.96
2018-11-04T06:45:51.569Z,5.83
2018-11-04T06:48:26.513Z,6.10
2018-11-04T06:51:02.167Z,6.54
2018-11-04T06:53:37.048Z,6.68
2018-11-04T06:56:12.017Z,6.75
2018-11-04T06:58:46.870Z,6.81
2018-11-04T07:01:21.786Z,6.85
2018-11-04T07:04:02.238Z,7.01
2018-11-04T07:06:37.083Z,7.18
2018-11-04T07:09:12.146Z,7.32
2018-11-04T07:11:48.243Z,7.21
2018-11-04T07:14:23.224Z,7.47
2018-11-04T07:16:58.198Z,7.50
2018-11-04T07:19:33.928Z,7.59
2018-11-04T07:22:08.909Z,7.80
2018-11-04T07:24:43.917Z,7.74
2018-11-04T07:27:18.973Z,8.09
2018-11-04T07:29:53.884Z,8.28
2018-11-04T07:32:28.765Z,8.40
2018-11-04T07:35:03.817Z,8.36
2018-11-04T07:37:39.093Z,8.67
2018-11-04T07:40:14.101Z,8.79
2018-11-04T07:42:48.932Z,8.96
2018-11-04T07:45:23.841Z,9.08
2018-11-04T07:47:58.854Z,9.12
2018-11-04T07:50:33.791Z,9.21
2018-11-04T07:53:08.934Z,9.33
2018-11-04T07:55:44.108Z,9.61
2018-11-04T07:58:19.099Z,9.43
2018-11-04T08:00:54.216Z,9.59
2018-11-04T08:03:29.216Z,9.56
2018-11-04T08:06:04.730Z,9.71
2018-11-04T08:08:39.626Z,10.07
2018-11-04T08:11:14.779Z,10.22
2018-11-04T08:13:49.979Z,10.36
2018-11-04T08:16:24.652Z,10.54
2018-11-04T08:18:59.421Z,10.72
2018-11-04T08:21:34.368Z,10.79
2018-11-04T08:24:09.528Z,10.87
2018-11-04T08:26:44.563Z,10.80
2018-11-04T08:29:19.351Z,10.82
2018-11-04T08:31:54.542Z,11.00
2018-11-04T08:34:30.221Z,11.36
2018-11-04T08:37:11.446Z,11.68
2018-11-04T08:39:46.361Z,11.97
2018-11-04T08:42:21.745Z,11.87
2018-11-04T08:44:56.620Z,12.23
2018-11-04T08:47:31.580Z,12.36
2018-11-04T08:50:07.220Z,12.53
2018-11-04T08:52:42.077Z,12.80
2018-11-04T08:55:17.145Z,12.88
2018-11-04T08:57:52.324Z,13.00
2018-11-04T09:00:27.376Z,13.14
2018-11-04T09:03:02.503Z,13.34
2018-11-04T09:05:42.531Z,13.76
2018-11-04T09:08:18.241Z,14.08
2018-11-04T09:10:53.262Z,14.38
2018-11-04T09:13:28.291Z,14.66
2018-11-04T09:16:03.196Z,14.66
2018-11-04T09:18:38.151Z,14.90
2018-11-04T09:21:13.868Z,14.94
2018-11-04T09:23:48.978Z,14.70
2018-11-04T09:26:23.992Z,14.78
2018-11-04T09:28:59.120Z,15.00
2018-11-04T09:31:35.117Z,15.19
2018-11-04T09:34:10.189Z,15.31
2018-11-04T09:36:44.930Z,15.59
2018-11-04T09:39:20.463Z,15.66
2018-11-04T09:41:55.456Z,15.38
2018-11-04T09:44:31.489Z,15.53
2018-11-04T09:47:08.632Z,15.88
2018-11-04T09:49:43.710Z,16.34
2018-11-04T09:52:18.579Z,16.44
2018-11-04T09:54:53.726Z,16.56
2018-11-04T09:57:28.581Z,16.69
2018-11-04T10:00:03.733Z,16.86
2018-11-04T10:02:39.292Z,16.85
2018-11-04T10:05:14.121Z,17.25
2018-11-04T10:07:49.093Z,17.38
2018-11-04T10:10:28.465Z,17.53
2018-11-04T10:13:03.306Z,17.77
2018-11-04T10:15:38.765Z,17.78
2018-11-04T10:18:13.677Z,17.49
2018-11-04T10:20:49.169Z,17.92
2018-11-04T10:23:32.236Z,17.73
2018-11-04T10:26:07.672Z,17.84
2018-11-04T10:28:42.672Z,17.59
2018-11-04T10:31:22.016Z,18.18
2018-11-04T10:34:08.031Z,18.18
2018-11-04T10:36:45.107Z,18.27
2018-11-04T10:39:22.611Z,18.46
2018-11-04T10:41:57.594Z,18.08
2018-11-04T10:44:33.629Z,18.51
2018-11-04T10:47:08.726Z,18.56
2018-11-04T10:49:43.796Z,18.99
2018-11-04T10:52:18.825Z,19.16
2018-11-04T10:54:53.990Z,19.16
2018-11-04T10:57:29.210Z,19.11
2018-11-04T11:00:04.149Z,18.74
2018-11-04T11:02:39.225Z,19.01
2018-11-04T11:05:14.474Z,19.02
2018-11-04T11:07:49.966Z,19.61
2018-11-04T11:10:30.632Z,19.88
2018-11-04T11:13:05.924Z,20.31
2018-11-04T11:15:45.310Z,20.63
2018-11-04T11:18:20.257Z,20.26
2018-11-04T11:20:55.148Z,20.11
2018-11-04T11:23:30.321Z,20.44
2018-11-04T11:26:09.765Z,20.51
2018-11-04T11:28:44.691Z,20.64
2018-11-04T11:31:19.768Z,20.90
2018-11-04T11:33:54.835Z,20.90
2018-11-04T11:36:38.218Z,20.32
2018-11-04T11:39:14.377Z,20.49
2018-11-04T11:41:49.702Z,20.51
2018-11-04T11:44:24.648Z,20.51
2018-11-04T11:46:59.633Z,20.70
2018-11-04T11:49:34.844Z,20.28
2018-11-04T11:52:10.141Z,20.39
2018-11-04T11:54:45.047Z,20.51
2018-11-04T11:57:20.091Z,20.13
2018-11-04T11:59:55.092Z,19.72
2018-11-04T12:02:30.267Z,19.93
2018-11-04T12:05:05.713Z,19.98
2018-11-04T12:07:40.674Z,19.80
2018-11-04T12:10:15.630Z,19.94
2018-11-04T12:12:50.545Z,19.12
2018-11-04T12:15:26.206Z,19.32
2018-11-04T12:18:00.986Z,19.74
2018-11-04T12:20:35.914Z,19.36
2018-11-04T12:23:10.857Z,19.25
2018-11-04T12:25:50.215Z,19.26
2018-11-04T12:28:33.496Z,19.08
2018-11-04T12:31:17.505Z,19.10
2018-11-04T12:34:00.844Z,19.32
2018-11-04T12:36:36.006Z,19.41
2018-11-04T12:39:22.010Z,19.37
2018-11-04T12:42:03.275Z,18.84
2018-11-04T12:44:38.159Z,18.49
2018-11-04T12:47:13.306Z,18.92
2018-11-04T12:49:48.457Z,19.04
2018-11-04T12:52:23.631Z,19.17
2018-11-04T12:54:58.760Z,19.17
2018-11-04T12:57:33.745Z,19.16
2018-11-04T13:00:09.925Z,19.61
2018-11-04T13:02:45.449Z,19.63
2018-11-04T13:05:34.938Z,19.94
2018-11-04T13:08:11.029Z,20.18
2018-11-04T13:10:47.026Z,19.88
2018-11-04T13:13:23.561Z,20.36
2018-11-04T13:15:59.677Z,21.12
2018-11-04T13:18:35.884Z,21.21
2018-11-04T13:21:16.080Z,21.48
2018-11-04T13:24:02.712Z,21.55
2018-11-04T13:26:47.876Z,21.75
2018-11-04T13:29:32.724Z,22.15
2018-11-04T13:32:21.531Z,21.97
2018-11-04T13:35:02.322Z,21.94
2018-11-04T13:37:47.128Z,21.92
2018-11-04T13:40:31.542Z,21.97
2018-11-04T13:43:07.634Z,21.92
2018-11-04T13:45:44.049Z,21.55
2018-11-04T13:48:20.357Z,20.68
2018-11-04T13:50:56.344Z,20.23
2018-11-04T13:53:32.340Z,19.85
2018-11-04T13:56:12.901Z,19.32
2018-11-04T13:58:48.941Z,18.89
2018-11-04T14:01:25.068Z,18.70
2018-11-04T14:04:01.186Z,18.48
2018-11-04T14:06:37.452Z,18.27
2018-11-04T14:09:13.670Z,18.07
2018-11-04T14:11:49.818Z,17.87
2018-11-04T14:14:21.036Z,17.63
2018-11-04T14:17:01.001Z,17.58
2018-11-04T14:19:31.932Z,17.36
2018-11-04T14:22:03.163Z,17.29
2018-11-04T14:24:34.412Z,16.90
2018-11-04T14:27:11.609Z,16.75
2018-11-04T14:29:42.559Z,16.74
2018-11-04T14:32:14.357Z,16.73
2018-11-04T14:34:45.433Z,16.40
2018-11-04T14:37:16.621Z,16.21
2018-11-04T14:39:47.563Z,15.94
2018-11-04T14:42:22.948Z,15.85
2018-11-04T14:44:57.980Z,15.57
2018-11-04T14:47:28.962Z,15.32
2018-11-04T14:50:06.450Z,15.20
2018-11-04T14:52:51.917Z,14.69
2018-11-04T14:55:27.973Z,14.20
2018-11-04T14:58:04.521Z,14.10
2018-11-04T15:00:40.505Z,13.97
2018-11-04T15:03:25.272Z,13.82
2018-11-04T15:06:09.572Z,13.64
2018-11-04T15:08:50.840Z,13.47
2018-11-04T15:11:26.865Z,13.26
2018-11-04T15:14:02.936Z,13.03
2018-11-04T15:16:38.849Z,12.92
2018-11-04T15:19:15.680Z,12.69
2018-11-04T15:21:52.480Z,12.28
2018-11-04T15:24:34.445Z,11.99
2018-11-04T15:27:15.216Z,12.04
2018-11-04T15:29:55.289Z,11.68
2018-11-04T15:32:31.236Z,11.70
2018-11-04T15:35:13.535Z,11.57
2018-11-04T15:37:49.513Z,11.30
2018-11-04T15:40:34.936Z,11.45
2018-11-04T15:43:11.157Z,10.93
2018-11-04T15:45:47.208Z,10.81
2018-11-04T15:48:23.110Z,10.88
2018-11-04T15:51:04.412Z,10.78
2018-11-04T15:53:40.365Z,10.35
2018-11-04T15:56:25.781Z,10.16
2018-11-04T15:59:01.655Z,9.80
2018-11-04T16:01:37.752Z,9.76
2018-11-04T16:04:08.652Z,9.84
2018-11-04T16:06:39.717Z,9.85
2018-11-04T16:09:10.604Z,9.79
2018-11-04T16:11:46.932Z,9.51
2018-11-04T16:14:17.909Z,9.34
2018-11-04T16:16:48.869Z,9.46
2018-11-04T16:19:19.954Z,9.40
2018-11-04T16:21:50.991Z,9.63
2018-11-04T16:24:22.041Z,9.18
2018-11-04T16:26:54.914Z,8.93
2018-11-04T16:29:27.336Z,8.62
2018-11-04T16:31:59.485Z,8.31
2018-11-04T16:34:30.616Z,8.18
2018-11-04T16:37:01.602Z,8.08
2018-11-04T16:39:32.960Z,7.92
2018-11-04T16:42:04.043Z,7.81
2018-11-04T16:44:35.026Z,7.44
2018-11-04T16:47:06.365Z,7.35
2018-11-04T16:49:37.362Z,7.28
2018-11-04T16:52:10.378Z,7.29
2018-11-04T16:54:41.431Z,7.36
2018-11-04T16:57:12.419Z,7.44
2018-11-04T16:59:43.418Z,7.51
2018-11-04T17:02:14.452Z,7.62
2018-11-04T17:04:45.532Z,7.38
2018-11-04T17:07:16.968Z,7.38
2018-11-04T17:09:48.176Z,7.51
2018-11-04T17:12:20.231Z,7.70
2018-11-04T17:14:54.006Z,7.61
2018-11-04T17:17:25.641Z,7.57
2018-11-04T17:19:57.217Z,7.23
2018-11-04T17:22:28.305Z,6.88
2018-11-04T17:25:03.707Z,6.91
2018-11-04T17:27:35.636Z,6.88
2018-11-04T17:30:10.539Z,7.03
2018-11-04T17:32:41.545Z,6.74
2018-11-04T17:35:14.423Z,6.71
2018-11-04T17:37:49.844Z,6.56
2018-11-04T17:40:20.781Z,6.29
2018-11-04T17:42:51.821Z,6.39
2018-11-04T17:45:22.834Z,6.47
2018-11-04T17:47:54.039Z,6.23
2018-11-04T17:51:49.384Z,6.13
2018-11-04T17:54:20.377Z,6.03
2018-11-04T17:56:52.564Z,6.02
2018-11-04T17:59:24.223Z,6.00
2018-11-04T18:01:55.276Z,6.08
2018-11-04T18:04:28.158Z,6.24
2018-11-04T18:06:59.106Z,6.44
2018-11-04T18:09:30.853Z,6.68
2018-11-04T18:12:01.810Z,6.71
2018-11-04T18:14:32.818Z,6.76
2018-11-04T18:17:04.708Z,6.65
2018-11-04T18:19:35.727Z,6.81
2018-11-04T18:22:07.190Z,6.87
2018-11-04T18:24:38.913Z,6.51
2018-11-04T18:27:09.845Z,6.04
2018-11-04T18:29:40.922Z,5.74
2018-11-04T18:32:11.970Z,5.26
2018-11-04T18:34:43.091Z,5.05
2018-11-04T18:37:14.006Z,5.38
2018-11-04T18:39:45.044Z,5.49
2018-11-04T18:42:16.175Z,5.51
2018-11-04T18:44:47.225Z,5.54
2018-11-04T18:47:18.338Z,5.77
2018-11-04T18:49:49.377Z,6.02
2018-11-04T18:52:20.428Z,5.79
2018-11-04T18:54:52.299Z,5.46
2018-11-04T18:57:23.282Z,5.36
2018-11-04T18:59:54.569Z,5.11
2018-11-04T19:02:25.933Z,5.17
2018-11-04T19:04:56.855Z,4.89
2018-11-04T19:07:27.787Z,4.68
2018-11-04T19:09:59.337Z,4.84
2018-11-04T19:12:30.233Z,4.92
2018-11-04T19:15:01.425Z,4.97
2018-11-04T19:17:32.326Z,4.91
2018-11-04T19:20:04.519Z,5.01
2018-11-04T19:22:36.202Z,4.78
2018-11-04T19:25:08.250Z,4.98
2018-11-04T19:27:39.161Z,4.99
2018-11-04T19:30:12.801Z,5.04
2018-11-04T19:32:44.109Z,5.02
2018-11-04T19:35:16.049Z,5.19
2018-11-04T19:37:50.657Z,4.90
2018-11-04T19:40:34.386Z,4.87
2018-11-04T19:43:05.400Z,4.81
2018-11-04T19:45:36.529Z,4.65
2018-11-04T19:48:07.604Z,4.56
2018-11-04T19:50:38.746Z,4.43
2018-11-04T19:53:09.661Z,3.78
2018-11-04T19:55:40.723Z,3.57
2018-11-04T19:58:11.787Z,3.61
2018-11-04T20:00:42.951Z,3.70
2018-11-04T20:03:13.855Z,3.94
2018-11-04T20:05:45.011Z,4.19
2018-11-04T20:08:16.212Z,4.16
2018-11-04T20:10:47.589Z,4.01
2018-11-04T20:13:23.821Z,3.92
2018-11-04T20:15:54.903Z,3.93
2018-11-04T20:20:43.442Z,3.84
2018-11-04T20:23:14.543Z,4.14
2018-11-04T20:25:50.631Z,4.21
2018-11-04T20:28:21.715Z,4.42
2018-11-04T20:30:52.665Z,4.57
2018-11-04T20:33:23.922Z,4.67
2018-11-04T20:35:54.919Z,4.67
2018-11-04T20:38:31.154Z,4.58
2018-11-04T20:41:06.969Z,4.06
2018-11-04T20:43:37.942Z,3.88
2018-11-04T20:46:09.098Z,3.93
2018-11-04T20:49:47.801Z,4.10
2018-11-04T20:52:19.052Z,4.02
2018-11-04T20:54:50.086Z,3.54
2018-11-04T20:57:25.948Z,3.51
2018-11-04T21:00:02.551Z,3.37
2018-11-04T21:02:38.682Z,3.75
2018-11-04T21:05:14.847Z,3.48
2018-11-04T21:07:50.744Z,3.72
2018-11-04T21:10:26.755Z,3.68
2018-11-04T21:13:02.705Z,3.39
2018-11-04T21:15:41.382Z,3.33
2018-11-04T21:18:17.491Z,3.42
2018-11-04T21:20:57.188Z,3.68
2018-11-04T21:23:33.045Z,3.73
2018-11-04T21:26:10.352Z,3.77
2018-11-04T21:28:46.417Z,3.97
2018-11-04T21:31:22.890Z,3.89
2018-11-04T21:33:59.814Z,3.47
2018-11-04T21:36:36.155Z,2.72
2018-11-04T21:39:13.067Z,3.01
2018-11-04T21:41:49.109Z,2.99
2018-11-04T21:44:25.725Z,2.48
2018-11-04T21:47:01.743Z,2.17
2018-11-04T21:49:37.603Z,2.24
2018-11-04T21:52:13.953Z,2.44
2018-11-04T21:54:49.888Z,2.43
2018-11-04T21:57:25.859Z,2.81
2018-11-04T22:00:01.790Z,2.96
2018-11-04T22:02:37.850Z,3.03
2018-11-04T22:05:14.025Z,3.15
2018-11-04T22:07:50.072Z,2.52
2018-11-04T22:10:25.963Z,2.30
2018-11-04T22:13:02.209Z,2.07
2018-11-04T22:15:38.037Z,2.21
2018-11-04T22:18:13.894Z,1.99
2018-11-04T22:20:49.827Z,2.01
2018-11-04T22:23:25.990Z,2.28
2018-11-04T22:26:01.885Z,2.17
2018-11-04T22:28:37.765Z,2.10
2018-11-04T22:31:13.626Z,2.52
2018-11-04T22:33:50.314Z,2.14
2018-11-04T22:36:26.281Z,1.52
2018-11-04T22:39:02.950Z,1.41
2018-11-04T22:41:38.949Z,1.36
2018-11-04T22:44:14.841Z,1.67
2018-11-04T22:46:50.789Z,1.98
2018-11-04T22:49:26.834Z,2.15
2018-11-04T22:52:02.592Z,2.02
2018-11-04T22:54:38.548Z,1.77
2018-11-04T22:57:14.381Z,1.57
2018-11-04T22:59:50.324Z,1.51
2018-11-04T23:02:27.133Z,1.42
2018-11-04T23:05:08.117Z,1.31
2018-11-04T23:07:44.428Z,1.07
2018-11-04T23:10:21.172Z,0.96
2018-11-04T23:12:56.957Z,1.32
2018-11-04T23:15:33.042Z,1.48
2018-11-04T23:18:09.000Z,1.51
2018-11-04T23:20:50.953Z,1.47
2018-11-04T23:23:27.051Z,1.54
2018-11-04T23:26:02.992Z,1.35
2018-11-04T23:28:39.469Z,1.37
2018-11-04T23:31:15.518Z,1.30
2018-11-04T23:33:51.805Z,1.19
2018-11-04T23:36:28.332Z,1.48
2018-11-04T23:39:05.468Z,1.28
2018-11-04T23:41:41.538Z,1.37
2018-11-04T23:44:17.365Z,1.57
2018-11-04T23:46:53.436Z,1.61
2018-11-04T23:49:29.777Z,1.62
2018-11-04T23:52:05.724Z,1.75
2018-11-04T23:54:41.650Z,1.57
2018-11-04T23:57:17.501Z,1.59
2018-11-04T23:59:53.450Z,1.81
